sensor_id;sensor_type;location;lat;lon;timestamp;P1;durP1;ratioP1;P2;durP2;ratioP2
18259;SDS011;9256;52.236;5.712;2023-04-15T00:02:17;11.88;;;4.82;;
18259;SDS011;9256;52.236;5.712;2023-04-15T00:04:44;12.98;;;4.70;;
18259;SDS011;9256;52.236;5.712;2023-04-15T00:07:11;10.05;;;4.80;;
18259;SDS011;9256;52.236;5.712;2023-04-15T00:09:40;11.55;;;4.88;;
18259;SDS011;9256;52.236;5.712;2023-04-15T00:12:09;12.60;;;5.13;;
18259;SDS011;9256;52.236;5.712;2023-04-15T00:14:36;11.93;;;5.28;;
18259;SDS011;9256;52.236;5.712;2023-04-15T00:17:04;11.50;;;5.07;;
18259;SDS011;9256;52.236;5.712;2023-04-15T00:19:32;11.43;;;5.20;;
18259;SDS011;9256;52.236;5.712;2023-04-15T00:21:59;11.52;;;5.15;;
18259;SDS011;9256;52.236;5.712;2023-04-15T00:24:26;10.73;;;4.53;;
18259;SDS011;9256;52.236;5.712;2023-04-15T00:26:53;11.98;;;5.18;;
18259;SDS011;9256;52.236;5.712;2023-04-15T00:29:20;9.35;;;4.85;;
18259;SDS011;9256;52.236;5.712;2023-04-15T00:31:47;13.10;;;4.72;;
18259;SDS011;9256;52.236;5.712;2023-04-15T00:34:15;13.73;;;4.70;;
18259;SDS011;9256;52.236;5.712;2023-04-15T00:36:42;10.88;;;4.80;;
18259;SDS011;9256;52.236;5.712;2023-04-15T00:39:09;11.18;;;5.05;;
18259;SDS011;9256;52.236;5.712;2023-04-15T00:41:36;14.13;;;5.00;;
18259;SDS011;9256;52.236;5.712;2023-04-15T00:44:04;12.70;;;4.80;;
18259;SDS011;9256;52.236;5.712;2023-04-15T00:46:32;12.48;;;4.80;;
18259;SDS011;9256;52.236;5.712;2023-04-15T00:49:01;15.98;;;4.60;;
18259;SDS011;9256;52.236;5.712;2023-04-15T00:51:31;12.65;;;4.70;;
18259;SDS011;9256;52.236;5.712;2023-04-15T00:54:00;10.38;;;4.53;;
18259;SDS011;9256;52.236;5.712;2023-04-15T00:56:27;13.07;;;5.00;;
18259;SDS011;9256;52.236;5.712;2023-04-15T00:58:55;13.77;;;5.20;;
18259;SDS011;9256;52.236;5.712;2023-04-15T01:01:23;9.88;;;4.90;;
18259;SDS011;9256;52.236;5.712;2023-04-15T01:03:51;14.38;;;5.30;;
18259;SDS011;9256;52.236;5.712;2023-04-15T01:06:18;11.10;;;5.75;;
18259;SDS011;9256;52.236;5.712;2023-04-15T01:08:47;14.05;;;5.55;;
18259;SDS011;9256;52.236;5.712;2023-04-15T01:11:14;12.80;;;4.80;;
18259;SDS011;9256;52.236;5.712;2023-04-15T01:13:42;9.45;;;4.30;;
18259;SDS011;9256;52.236;5.712;2023-04-15T01:16:09;12.82;;;5.10;;
18259;SDS011;9256;52.236;5.712;2023-04-15T01:18:37;12.27;;;4.65;;
18259;SDS011;9256;52.236;5.712;2023-04-15T01:21:05;14.82;;;4.80;;
18259;SDS011;9256;52.236;5.712;2023-04-15T01:23:34;12.10;;;5.18;;
18259;SDS011;9256;52.236;5.712;2023-04-15T01:26:04;11.98;;;4.57;;
18259;SDS011;9256;52.236;5.712;2023-04-15T01:28:32;10.57;;;4.53;;
18259;SDS011;9256;52.236;5.712;2023-04-15T01:31:06;10.82;;;5.00;;
18259;SDS011;9256;52.236;5.712;2023-04-15T01:33:36;14.98;;;4.80;;
18259;SDS011;9256;52.236;5.712;2023-04-15T01:36:04;15.50;;;5.38;;
18259;SDS011;9256;52.236;5.712;2023-04-15T01:38:32;14.90;;;5.53;;
18259;SDS011;9256;52.236;5.712;2023-04-15T01:41:00;13.43;;;5.22;;
18259;SDS011;9256;52.236;5.712;2023-04-15T01:43:29;11.73;;;5.03;;
18259;SDS011;9256;52.236;5.712;2023-04-15T01:45:57;11.95;;;5.20;;
18259;SDS011;9256;52.236;5.712;2023-04-15T01:48:24;13.07;;;5.10;;
18259;SDS011;9256;52.236;5.712;2023-04-15T01:50:51;14.80;;;5.50;;
18259;SDS011;9256;52.236;5.712;2023-04-15T01:53:21;13.50;;;5.65;;
18259;SDS011;9256;52.236;5.712;2023-04-15T01:55:50;10.88;;;5.40;;
18259;SDS011;9256;52.236;5.712;2023-04-15T01:58:17;11.93;;;5.20;;
18259;SDS011;9256;52.236;5.712;2023-04-15T02:00:46;17.77;;;6.30;;
18259;SDS011;9256;52.236;5.712;2023-04-15T02:03:13;12.23;;;5.43;;
18259;SDS011;9256;52.236;5.712;2023-04-15T02:05:40;13.30;;;5.35;;
18259;SDS011;9256;52.236;5.712;2023-04-15T02:08:07;11.63;;;5.00;;
18259;SDS011;9256;52.236;5.712;2023-04-15T02:10:34;10.43;;;5.10;;
18259;SDS011;9256;52.236;5.712;2023-04-15T02:13:01;10.52;;;5.22;;
18259;SDS011;9256;52.236;5.712;2023-04-15T02:15:28;14.55;;;5.10;;
18259;SDS011;9256;52.236;5.712;2023-04-15T02:17:57;11.65;;;5.20;;
18259;SDS011;9256;52.236;5.712;2023-04-15T02:20:24;17.38;;;5.47;;
18259;SDS011;9256;52.236;5.712;2023-04-15T02:22:51;10.77;;;4.73;;
18259;SDS011;9256;52.236;5.712;2023-04-15T02:25:20;14.07;;;5.03;;
18259;SDS011;9256;52.236;5.712;2023-04-15T02:27:47;9.90;;;4.80;;
18259;SDS011;9256;52.236;5.712;2023-04-15T02:30:14;13.20;;;5.97;;
18259;SDS011;9256;52.236;5.712;2023-04-15T02:32:42;11.48;;;5.50;;
18259;SDS011;9256;52.236;5.712;2023-04-15T02:35:10;14.80;;;5.17;;
18259;SDS011;9256;52.236;5.712;2023-04-15T02:37:37;15.23;;;5.50;;
18259;SDS011;9256;52.236;5.712;2023-04-15T02:40:07;12.43;;;5.13;;
18259;SDS011;9256;52.236;5.712;2023-04-15T02:42:36;13.17;;;5.40;;
18259;SDS011;9256;52.236;5.712;2023-04-15T02:45:04;14.10;;;4.97;;
18259;SDS011;9256;52.236;5.712;2023-04-15T02:47:32;13.90;;;4.97;;
18259;SDS011;9256;52.236;5.712;2023-04-15T02:50:01;10.00;;;4.50;;
18259;SDS011;9256;52.236;5.712;2023-04-15T02:52:30;11.37;;;5.13;;
18259;SDS011;9256;52.236;5.712;2023-04-15T02:54:57;11.47;;;4.83;;
18259;SDS011;9256;52.236;5.712;2023-04-15T02:57:26;13.20;;;4.70;;
18259;SDS011;9256;52.236;5.712;2023-04-15T02:59:54;15.20;;;5.23;;
18259;SDS011;9256;52.236;5.712;2023-04-15T03:02:21;11.80;;;5.17;;
18259;SDS011;9256;52.236;5.712;2023-04-15T03:04:48;16.15;;;6.75;;
18259;SDS011;9256;52.236;5.712;2023-04-15T03:07:16;12.83;;;5.43;;
18259;SDS011;9256;52.236;5.712;2023-04-15T03:09:44;14.93;;;5.63;;
18259;SDS011;9256;52.236;5.712;2023-04-15T03:12:12;13.27;;;5.13;;
18259;SDS011;9256;52.236;5.712;2023-04-15T03:14:39;15.07;;;5.47;;
18259;SDS011;9256;52.236;5.712;2023-04-15T03:17:05;15.70;;;5.33;;
18259;SDS011;9256;52.236;5.712;2023-04-15T03:19:33;14.40;;;5.47;;
18259;SDS011;9256;52.236;5.712;2023-04-15T03:22:00;13.53;;;5.00;;
18259;SDS011;9256;52.236;5.712;2023-04-15T03:24:26;13.53;;;5.10;;
18259;SDS011;9256;52.236;5.712;2023-04-15T03:26:55;14.87;;;5.30;;
18259;SDS011;9256;52.236;5.712;2023-04-15T03:29:23;12.50;;;5.07;;
18259;SDS011;9256;52.236;5.712;2023-04-15T03:31:50;14.23;;;5.13;;
18259;SDS011;9256;52.236;5.712;2023-04-15T03:34:18;14.80;;;5.63;;
18259;SDS011;9256;52.236;5.712;2023-04-15T03:36:45;14.63;;;5.17;;
18259;SDS011;9256;52.236;5.712;2023-04-15T03:39:12;13.93;;;6.03;;
18259;SDS011;9256;52.236;5.712;2023-04-15T03:41:39;12.07;;;5.63;;
18259;SDS011;9256;52.236;5.712;2023-04-15T03:44:07;17.07;;;5.63;;
18259;SDS011;9256;52.236;5.712;2023-04-15T03:46:34;16.77;;;5.60;;
18259;SDS011;9256;52.236;5.712;2023-04-15T03:49:01;14.20;;;5.40;;
18259;SDS011;9256;52.236;5.712;2023-04-15T03:51:29;13.77;;;5.33;;
18259;SDS011;9256;52.236;5.712;2023-04-15T03:53:56;18.00;;;5.47;;
18259;SDS011;9256;52.236;5.712;2023-04-15T03:56:23;16.13;;;7.47;;
18259;SDS011;9256;52.236;5.712;2023-04-15T03:58:51;15.83;;;6.20;;
18259;SDS011;9256;52.236;5.712;2023-04-15T04:01:19;19.27;;;6.13;;
18259;SDS011;9256;52.236;5.712;2023-04-15T04:03:46;16.80;;;6.00;;
18259;SDS011;9256;52.236;5.712;2023-04-15T04:06:13;15.30;;;5.70;;
18259;SDS011;9256;52.236;5.712;2023-04-15T04:08:40;17.07;;;6.23;;
18259;SDS011;9256;52.236;5.712;2023-04-15T04:11:07;14.23;;;5.67;;
18259;SDS011;9256;52.236;5.712;2023-04-15T04:13:34;14.57;;;5.70;;
18259;SDS011;9256;52.236;5.712;2023-04-15T04:16:03;12.97;;;5.97;;
18259;SDS011;9256;52.236;5.712;2023-04-15T04:18:32;15.20;;;5.57;;
18259;SDS011;9256;52.236;5.712;2023-04-15T04:20:59;14.13;;;5.73;;
18259;SDS011;9256;52.236;5.712;2023-04-15T04:23:26;15.17;;;5.83;;
18259;SDS011;9256;52.236;5.712;2023-04-15T04:25:53;16.00;;;6.07;;
18259;SDS011;9256;52.236;5.712;2023-04-15T04:28:20;16.20;;;5.93;;
18259;SDS011;9256;52.236;5.712;2023-04-15T04:30:47;20.33;;;5.97;;
18259;SDS011;9256;52.236;5.712;2023-04-15T04:33:14;16.17;;;6.27;;
18259;SDS011;9256;52.236;5.712;2023-04-15T04:35:42;13.73;;;6.00;;
18259;SDS011;9256;52.236;5.712;2023-04-15T04:38:09;13.97;;;5.80;;
18259;SDS011;9256;52.236;5.712;2023-04-15T04:40:36;16.73;;;6.47;;
18259;SDS011;9256;52.236;5.712;2023-04-15T04:43:03;15.27;;;6.43;;
18259;SDS011;9256;52.236;5.712;2023-04-15T04:45:30;13.60;;;5.97;;
18259;SDS011;9256;52.236;5.712;2023-04-15T04:47:57;21.02;;;9.45;;
18259;SDS011;9256;52.236;5.712;2023-04-15T04:50:24;21.30;;;7.47;;
18259;SDS011;9256;52.236;5.712;2023-04-15T04:52:52;15.63;;;7.03;;
18259;SDS011;9256;52.236;5.712;2023-04-15T04:55:20;16.27;;;6.73;;
18259;SDS011;9256;52.236;5.712;2023-04-15T04:57:47;16.77;;;6.80;;
18259;SDS011;9256;52.236;5.712;2023-04-15T05:00:14;18.70;;;7.10;;
18259;SDS011;9256;52.236;5.712;2023-04-15T05:02:41;17.93;;;6.60;;
18259;SDS011;9256;52.236;5.712;2023-04-15T05:05:09;17.27;;;7.50;;
18259;SDS011;9256;52.236;5.712;2023-04-15T05:07:37;17.83;;;7.30;;
18259;SDS011;9256;52.236;5.712;2023-04-15T05:10:07;18.90;;;7.00;;
18259;SDS011;9256;52.236;5.712;2023-04-15T05:12:34;16.87;;;6.93;;
18259;SDS011;9256;52.236;5.712;2023-04-15T05:15:02;17.47;;;6.77;;
18259;SDS011;9256;52.236;5.712;2023-04-15T05:17:30;17.27;;;6.93;;
18259;SDS011;9256;52.236;5.712;2023-04-15T05:19:59;19.27;;;7.93;;
18259;SDS011;9256;52.236;5.712;2023-04-15T05:22:29;20.48;;;7.97;;
18259;SDS011;9256;52.236;5.712;2023-04-15T05:24:56;19.47;;;7.83;;
18259;SDS011;9256;52.236;5.712;2023-04-15T05:27:24;20.40;;;7.83;;
18259;SDS011;9256;52.236;5.712;2023-04-15T05:29:51;20.80;;;8.53;;
18259;SDS011;9256;52.236;5.712;2023-04-15T05:32:18;19.07;;;7.97;;
18259;SDS011;9256;52.236;5.712;2023-04-15T05:34:44;20.40;;;8.13;;
18259;SDS011;9256;52.236;5.712;2023-04-15T05:37:11;19.80;;;7.97;;
18259;SDS011;9256;52.236;5.712;2023-04-15T05:39:38;21.73;;;8.13;;
18259;SDS011;9256;52.236;5.712;2023-04-15T05:42:06;22.30;;;8.40;;
18259;SDS011;9256;52.236;5.712;2023-04-15T05:44:36;21.63;;;8.43;;
18259;SDS011;9256;52.236;5.712;2023-04-15T05:47:03;20.00;;;8.50;;
18259;SDS011;9256;52.236;5.712;2023-04-15T05:49:31;19.83;;;7.73;;
18259;SDS011;9256;52.236;5.712;2023-04-15T05:51:58;22.70;;;7.67;;
18259;SDS011;9256;52.236;5.712;2023-04-15T05:54:25;22.70;;;8.48;;
18259;SDS011;9256;52.236;5.712;2023-04-15T05:56:52;22.67;;;8.70;;
18259;SDS011;9256;52.236;5.712;2023-04-15T05:59:20;22.27;;;8.97;;
18259;SDS011;9256;52.236;5.712;2023-04-15T06:01:48;23.37;;;8.70;;
18259;SDS011;9256;52.236;5.712;2023-04-15T06:04:16;23.03;;;9.00;;
18259;SDS011;9256;52.236;5.712;2023-04-15T06:06:43;24.43;;;8.83;;
18259;SDS011;9256;52.236;5.712;2023-04-15T06:09:10;25.13;;;9.20;;
18259;SDS011;9256;52.236;5.712;2023-04-15T06:11:37;23.83;;;9.00;;
18259;SDS011;9256;52.236;5.712;2023-04-15T06:14:05;25.17;;;9.57;;
18259;SDS011;9256;52.236;5.712;2023-04-15T06:16:32;24.10;;;9.13;;
18259;SDS011;9256;52.236;5.712;2023-04-15T06:19:01;26.40;;;9.97;;
18259;SDS011;9256;52.236;5.712;2023-04-15T06:21:28;23.57;;;9.40;;
18259;SDS011;9256;52.236;5.712;2023-04-15T06:23:57;24.93;;;8.90;;
18259;SDS011;9256;52.236;5.712;2023-04-15T06:26:24;24.38;;;8.98;;
18259;SDS011;9256;52.236;5.712;2023-04-15T06:28:51;22.70;;;8.75;;
18259;SDS011;9256;52.236;5.712;2023-04-15T06:31:18;23.27;;;8.82;;
18259;SDS011;9256;52.236;5.712;2023-04-15T06:33:45;24.23;;;10.38;;
18259;SDS011;9256;52.236;5.712;2023-04-15T06:36:13;23.08;;;9.02;;
18259;SDS011;9256;52.236;5.712;2023-04-15T06:38:40;22.85;;;8.55;;
18259;SDS011;9256;52.236;5.712;2023-04-15T06:41:07;18.65;;;8.10;;
18259;SDS011;9256;52.236;5.712;2023-04-15T06:43:34;20.38;;;8.02;;
18259;SDS011;9256;52.236;5.712;2023-04-15T06:46:01;20.45;;;8.55;;
18259;SDS011;9256;52.236;5.712;2023-04-15T06:48:28;18.63;;;7.88;;
18259;SDS011;9256;52.236;5.712;2023-04-15T06:50:55;24.45;;;11.00;;
18259;SDS011;9256;52.236;5.712;2023-04-15T06:53:23;22.17;;;8.40;;
18259;SDS011;9256;52.236;5.712;2023-04-15T06:55:52;22.30;;;8.57;;
18259;SDS011;9256;52.236;5.712;2023-04-15T06:58:18;19.25;;;7.90;;
18259;SDS011;9256;52.236;5.712;2023-04-15T07:00:45;17.10;;;7.43;;
18259;SDS011;9256;52.236;5.712;2023-04-15T07:03:13;22.38;;;7.78;;
18259;SDS011;9256;52.236;5.712;2023-04-15T07:05:40;16.33;;;6.90;;
18259;SDS011;9256;52.236;5.712;2023-04-15T07:08:07;14.85;;;6.57;;
18259;SDS011;9256;52.236;5.712;2023-04-15T07:10:35;16.35;;;6.50;;
18259;SDS011;9256;52.236;5.712;2023-04-15T07:13:03;15.13;;;6.53;;
18259;SDS011;9256;52.236;5.712;2023-04-15T07:15:31;17.42;;;7.07;;
18259;SDS011;9256;52.236;5.712;2023-04-15T07:17:58;14.95;;;6.00;;
18259;SDS011;9256;52.236;5.712;2023-04-15T07:20:25;16.25;;;6.20;;
18259;SDS011;9256;52.236;5.712;2023-04-15T07:22:51;16.23;;;6.47;;
18259;SDS011;9256;52.236;5.712;2023-04-15T07:25:19;16.17;;;6.45;;
18259;SDS011;9256;52.236;5.712;2023-04-15T07:27:47;18.75;;;6.82;;
18259;SDS011;9256;52.236;5.712;2023-04-15T07:30:14;15.02;;;6.45;;
18259;SDS011;9256;52.236;5.712;2023-04-15T07:32:42;16.35;;;6.32;;
18259;SDS011;9256;52.236;5.712;2023-04-15T07:35:08;14.15;;;6.25;;
18259;SDS011;9256;52.236;5.712;2023-04-15T07:37:35;14.00;;;6.10;;
18259;SDS011;9256;52.236;5.712;2023-04-15T07:40:03;14.32;;;6.18;;
18259;SDS011;9256;52.236;5.712;2023-04-15T07:42:31;14.95;;;6.25;;
18259;SDS011;9256;52.236;5.712;2023-04-15T07:45:00;12.63;;;5.85;;
18259;SDS011;9256;52.236;5.712;2023-04-15T07:47:26;14.70;;;5.80;;
18259;SDS011;9256;52.236;5.712;2023-04-15T07:49:53;14.90;;;5.55;;
18259;SDS011;9256;52.236;5.712;2023-04-15T07:52:20;15.88;;;5.72;;
18259;SDS011;9256;52.236;5.712;2023-04-15T07:54:47;16.85;;;6.00;;
18259;SDS011;9256;52.236;5.712;2023-04-15T07:57:14;12.98;;;5.80;;
18259;SDS011;9256;52.236;5.712;2023-04-15T07:59:42;15.68;;;5.97;;
18259;SDS011;9256;52.236;5.712;2023-04-15T08:02:11;14.82;;;5.55;;
18259;SDS011;9256;52.236;5.712;2023-04-15T08:04:38;12.32;;;5.40;;
18259;SDS011;9256;52.236;5.712;2023-04-15T08:07:05;12.40;;;5.80;;
18259;SDS011;9256;52.236;5.712;2023-04-15T08:09:32;12.65;;;5.30;;
18259;SDS011;9256;52.236;5.712;2023-04-15T08:11:59;12.20;;;5.38;;
18259;SDS011;9256;52.236;5.712;2023-04-15T08:14:25;14.23;;;6.57;;
18259;SDS011;9256;52.236;5.712;2023-04-15T08:16:57;13.48;;;5.72;;
18259;SDS011;9256;52.236;5.712;2023-04-15T08:19:25;11.40;;;5.03;;
18259;SDS011;9256;52.236;5.712;2023-04-15T08:21:52;10.13;;;4.78;;
18259;SDS011;9256;52.236;5.712;2023-04-15T08:24:20;6.97;;;3.63;;
18259;SDS011;9256;52.236;5.712;2023-04-15T08:26:47;9.55;;;4.45;;
18259;SDS011;9256;52.236;5.712;2023-04-15T08:29:14;8.57;;;3.83;;
18259;SDS011;9256;52.236;5.712;2023-04-15T08:31:40;9.70;;;4.22;;
18259;SDS011;9256;52.236;5.712;2023-04-15T08:34:07;9.20;;;3.80;;
18259;SDS011;9256;52.236;5.712;2023-04-15T08:36:36;7.85;;;3.42;;
18259;SDS011;9256;52.236;5.712;2023-04-15T08:39:03;6.57;;;3.20;;
18259;SDS011;9256;52.236;5.712;2023-04-15T08:41:31;9.98;;;4.00;;
18259;SDS011;9256;52.236;5.712;2023-04-15T08:44:05;7.07;;;3.60;;
18259;SDS011;9256;52.236;5.712;2023-04-15T08:46:32;7.15;;;3.40;;
18259;SDS011;9256;52.236;5.712;2023-04-15T08:49:00;7.38;;;3.20;;
18259;SDS011;9256;52.236;5.712;2023-04-15T08:51:30;6.53;;;3.22;;
18259;SDS011;9256;52.236;5.712;2023-04-15T08:53:59;7.43;;;2.70;;
18259;SDS011;9256;52.236;5.712;2023-04-15T08:56:27;6.55;;;2.60;;
18259;SDS011;9256;52.236;5.712;2023-04-15T08:58:57;4.68;;;2.45;;
18259;SDS011;9256;52.236;5.712;2023-04-15T09:01:25;4.50;;;2.08;;
18259;SDS011;9256;52.236;5.712;2023-04-15T09:03:52;6.68;;;2.58;;
18259;SDS011;9256;52.236;5.712;2023-04-15T09:06:19;7.05;;;2.63;;
18259;SDS011;9256;52.236;5.712;2023-04-15T09:08:48;7.47;;;3.67;;
18259;SDS011;9256;52.236;5.712;2023-04-15T09:11:18;6.82;;;3.17;;
18259;SDS011;9256;52.236;5.712;2023-04-15T09:13:47;8.60;;;3.20;;
18259;SDS011;9256;52.236;5.712;2023-04-15T09:16:14;6.15;;;2.67;;
18259;SDS011;9256;52.236;5.712;2023-04-15T09:18:42;5.68;;;2.40;;
18259;SDS011;9256;52.236;5.712;2023-04-15T09:21:10;5.70;;;2.53;;
18259;SDS011;9256;52.236;5.712;2023-04-15T09:23:38;5.45;;;2.70;;
18259;SDS011;9256;52.236;5.712;2023-04-15T09:26:06;6.68;;;2.58;;
18259;SDS011;9256;52.236;5.712;2023-04-15T09:28:41;5.88;;;2.25;;
18259;SDS011;9256;52.236;5.712;2023-04-15T09:31:08;7.00;;;2.78;;
18259;SDS011;9256;52.236;5.712;2023-04-15T09:33:36;9.10;;;3.00;;
18259;SDS011;9256;52.236;5.712;2023-04-15T09:36:20;5.43;;;2.70;;
18259;SDS011;9256;52.236;5.712;2023-04-15T09:38:53;6.45;;;3.20;;
18259;SDS011;9256;52.236;5.712;2023-04-15T09:41:21;6.10;;;2.90;;
18259;SDS011;9256;52.236;5.712;2023-04-15T09:43:50;6.88;;;3.13;;
18259;SDS011;9256;52.236;5.712;2023-04-15T09:46:17;7.28;;;3.10;;
18259;SDS011;9256;52.236;5.712;2023-04-15T09:48:44;6.10;;;2.88;;
18259;SDS011;9256;52.236;5.712;2023-04-15T09:51:11;6.30;;;2.63;;
18259;SDS011;9256;52.236;5.712;2023-04-15T09:53:38;6.50;;;2.83;;
18259;SDS011;9256;52.236;5.712;2023-04-15T09:56:05;6.63;;;2.78;;
18259;SDS011;9256;52.236;5.712;2023-04-15T09:58:34;6.10;;;2.72;;
18259;SDS011;9256;52.236;5.712;2023-04-15T10:01:04;7.32;;;2.78;;
18259;SDS011;9256;52.236;5.712;2023-04-15T10:03:32;6.18;;;2.75;;
18259;SDS011;9256;52.236;5.712;2023-04-15T10:06:01;5.95;;;3.00;;
18259;SDS011;9256;52.236;5.712;2023-04-15T10:08:29;6.13;;;2.47;;
18259;SDS011;9256;52.236;5.712;2023-04-15T10:10:59;5.60;;;2.70;;
18259;SDS011;9256;52.236;5.712;2023-04-15T10:13:29;5.85;;;2.53;;
18259;SDS011;9256;52.236;5.712;2023-04-15T10:16:01;8.88;;;2.80;;
18259;SDS011;9256;52.236;5.712;2023-04-15T10:18:34;4.57;;;2.60;;
18259;SDS011;9256;52.236;5.712;2023-04-15T10:21:03;6.13;;;2.80;;
18259;SDS011;9256;52.236;5.712;2023-04-15T10:23:31;7.82;;;3.03;;
18259;SDS011;9256;52.236;5.712;2023-04-15T10:25:58;8.13;;;2.95;;
18259;SDS011;9256;52.236;5.712;2023-04-15T10:28:26;9.13;;;2.75;;
18259;SDS011;9256;52.236;5.712;2023-04-15T10:30:53;5.72;;;2.85;;
18259;SDS011;9256;52.236;5.712;2023-04-15T10:33:22;7.85;;;3.00;;
18259;SDS011;9256;52.236;5.712;2023-04-15T10:35:51;5.30;;;2.60;;
18259;SDS011;9256;52.236;5.712;2023-04-15T10:38:31;6.45;;;2.40;;
18259;SDS011;9256;52.236;5.712;2023-04-15T10:43:51;6.38;;;2.78;;
18259;SDS011;9256;52.236;5.712;2023-04-15T10:46:22;5.22;;;2.53;;
18259;SDS011;9256;52.236;5.712;2023-04-15T10:49:05;6.60;;;3.10;;
18259;SDS011;9256;52.236;5.712;2023-04-15T10:51:36;6.13;;;2.55;;
18259;SDS011;9256;52.236;5.712;2023-04-15T10:54:07;4.93;;;2.20;;
18259;SDS011;9256;52.236;5.712;2023-04-15T10:56:40;4.10;;;2.35;;
18259;SDS011;9256;52.236;5.712;2023-04-15T10:59:08;4.43;;;2.25;;
18259;SDS011;9256;52.236;5.712;2023-04-15T11:01:51;5.00;;;2.20;;
18259;SDS011;9256;52.236;5.712;2023-04-15T11:07:34;3.77;;;2.00;;
18259;SDS011;9256;52.236;5.712;2023-04-15T11:13:17;5.15;;;2.00;;
18259;SDS011;9256;52.236;5.712;2023-04-15T11:15:47;5.22;;;1.95;;
18259;SDS011;9256;52.236;5.712;2023-04-15T11:18:15;4.70;;;2.70;;
18259;SDS011;9256;52.236;5.712;2023-04-15T11:20:44;5.20;;;2.20;;
18259;SDS011;9256;52.236;5.712;2023-04-15T11:23:13;4.60;;;1.95;;
18259;SDS011;9256;52.236;5.712;2023-04-15T11:25:41;3.65;;;1.83;;
18259;SDS011;9256;52.236;5.712;2023-04-15T11:28:08;4.90;;;2.05;;
18259;SDS011;9256;52.236;5.712;2023-04-15T11:30:36;5.68;;;2.00;;
18259;SDS011;9256;52.236;5.712;2023-04-15T11:33:04;4.28;;;1.90;;
18259;SDS011;9256;52.236;5.712;2023-04-15T11:35:33;6.57;;;1.88;;
18259;SDS011;9256;52.236;5.712;2023-04-15T11:38:03;5.47;;;2.20;;
18259;SDS011;9256;52.236;5.712;2023-04-15T11:40:31;3.88;;;2.20;;
18259;SDS011;9256;52.236;5.712;2023-04-15T11:43:06;5.78;;;2.40;;
18259;SDS011;9256;52.236;5.712;2023-04-15T11:45:34;4.35;;;2.08;;
18259;SDS011;9256;52.236;5.712;2023-04-15T11:48:05;5.63;;;2.40;;
18259;SDS011;9256;52.236;5.712;2023-04-15T11:50:32;4.88;;;2.20;;
18259;SDS011;9256;52.236;5.712;2023-04-15T11:53:00;3.95;;;1.90;;
18259;SDS011;9256;52.236;5.712;2023-04-15T11:55:30;5.05;;;1.90;;
18259;SDS011;9256;52.236;5.712;2023-04-15T11:58:10;4.00;;;1.80;;
18259;SDS011;9256;52.236;5.712;2023-04-15T12:00:38;3.47;;;1.70;;
18259;SDS011;9256;52.236;5.712;2023-04-15T12:03:12;2.92;;;1.52;;
18259;SDS011;9256;52.236;5.712;2023-04-15T12:11:26;2.78;;;1.20;;
18259;SDS011;9256;52.236;5.712;2023-04-15T12:14:02;3.17;;;1.40;;
18259;SDS011;9256;52.236;5.712;2023-04-15T12:16:35;2.58;;;1.30;;
18259;SDS011;9256;52.236;5.712;2023-04-15T12:19:04;3.97;;;1.30;;
18259;SDS011;9256;52.236;5.712;2023-04-15T12:21:33;3.20;;;1.38;;
18259;SDS011;9256;52.236;5.712;2023-04-15T12:24:03;3.85;;;1.40;;
18259;SDS011;9256;52.236;5.712;2023-04-15T12:26:32;3.53;;;1.50;;
18259;SDS011;9256;52.236;5.712;2023-04-15T12:29:01;4.10;;;1.80;;
18259;SDS011;9256;52.236;5.712;2023-04-15T12:31:29;4.53;;;1.38;;
18259;SDS011;9256;52.236;5.712;2023-04-15T12:33:56;4.22;;;1.20;;
18259;SDS011;9256;52.236;5.712;2023-04-15T12:36:24;3.15;;;1.20;;
18259;SDS011;9256;52.236;5.712;2023-04-15T12:38:52;2.50;;;1.10;;
18259;SDS011;9256;52.236;5.712;2023-04-15T12:41:20;2.65;;;0.95;;
18259;SDS011;9256;52.236;5.712;2023-04-15T12:43:48;2.50;;;1.00;;
18259;SDS011;9256;52.236;5.712;2023-04-15T12:46:15;1.80;;;0.80;;
18259;SDS011;9256;52.236;5.712;2023-04-15T12:48:42;3.40;;;1.08;;
18259;SDS011;9256;52.236;5.712;2023-04-15T12:51:10;2.50;;;0.95;;
18259;SDS011;9256;52.236;5.712;2023-04-15T12:53:37;1.67;;;0.95;;
18259;SDS011;9256;52.236;5.712;2023-04-15T12:56:04;1.45;;;0.80;;
18259;SDS011;9256;52.236;5.712;2023-04-15T12:58:33;4.10;;;0.90;;
18259;SDS011;9256;52.236;5.712;2023-04-15T13:01:00;2.42;;;0.80;;
18259;SDS011;9256;52.236;5.712;2023-04-15T13:03:27;2.08;;;0.90;;
18259;SDS011;9256;52.236;5.712;2023-04-15T13:05:54;3.58;;;0.70;;
18259;SDS011;9256;52.236;5.712;2023-04-15T13:08:21;1.08;;;0.80;;
18259;SDS011;9256;52.236;5.712;2023-04-15T13:10:49;3.45;;;0.90;;
18259;SDS011;9256;52.236;5.712;2023-04-15T13:13:16;4.55;;;0.88;;
18259;SDS011;9256;52.236;5.712;2023-04-15T13:15:44;3.40;;;0.90;;
18259;SDS011;9256;52.236;5.712;2023-04-15T13:18:11;3.13;;;0.90;;
18259;SDS011;9256;52.236;5.712;2023-04-15T13:20:38;1.70;;;0.85;;
18259;SDS011;9256;52.236;5.712;2023-04-15T13:23:05;3.00;;;0.80;;
18259;SDS011;9256;52.236;5.712;2023-04-15T13:25:32;3.38;;;1.00;;
18259;SDS011;9256;52.236;5.712;2023-04-15T13:27:59;3.30;;;0.80;;
18259;SDS011;9256;52.236;5.712;2023-04-15T13:30:26;2.08;;;0.90;;
18259;SDS011;9256;52.236;5.712;2023-04-15T13:32:54;3.20;;;1.00;;
18259;SDS011;9256;52.236;5.712;2023-04-15T13:35:21;2.58;;;1.20;;
18259;SDS011;9256;52.236;5.712;2023-04-15T13:37:48;3.63;;;1.30;;
18259;SDS011;9256;52.236;5.712;2023-04-15T13:40:15;1.65;;;1.05;;
18259;SDS011;9256;52.236;5.712;2023-04-15T13:42:42;2.88;;;1.10;;
18259;SDS011;9256;52.236;5.712;2023-04-15T13:45:10;4.20;;;1.38;;
18259;SDS011;9256;52.236;5.712;2023-04-15T13:47:37;2.40;;;1.10;;
18259;SDS011;9256;52.236;5.712;2023-04-15T13:50:06;1.65;;;1.00;;
18259;SDS011;9256;52.236;5.712;2023-04-15T13:52:33;2.47;;;0.90;;
18259;SDS011;9256;52.236;5.712;2023-04-15T13:55:00;2.75;;;0.98;;
18259;SDS011;9256;52.236;5.712;2023-04-15T13:57:27;4.93;;;1.23;;
18259;SDS011;9256;52.236;5.712;2023-04-15T13:59:54;4.25;;;1.30;;
18259;SDS011;9256;52.236;5.712;2023-04-15T14:02:21;2.83;;;1.17;;
18259;SDS011;9256;52.236;5.712;2023-04-15T14:04:51;2.47;;;1.35;;
18259;SDS011;9256;52.236;5.712;2023-04-15T14:07:19;2.83;;;1.48;;
18259;SDS011;9256;52.236;5.712;2023-04-15T14:09:46;3.35;;;1.45;;
18259;SDS011;9256;52.236;5.712;2023-04-15T14:12:13;5.53;;;1.50;;
18259;SDS011;9256;52.236;5.712;2023-04-15T14:14:40;3.75;;;1.40;;
18259;SDS011;9256;52.236;5.712;2023-04-15T14:17:07;4.90;;;1.40;;
18259;SDS011;9256;52.236;5.712;2023-04-15T14:19:34;3.30;;;1.40;;
18259;SDS011;9256;52.236;5.712;2023-04-15T14:22:01;6.25;;;1.20;;
18259;SDS011;9256;52.236;5.712;2023-04-15T14:24:29;2.85;;;1.20;;
18259;SDS011;9256;52.236;5.712;2023-04-15T14:26:57;3.00;;;1.20;;
18259;SDS011;9256;52.236;5.712;2023-04-15T14:29:24;5.82;;;1.30;;
18259;SDS011;9256;52.236;5.712;2023-04-15T14:31:51;4.93;;;1.80;;
18259;SDS011;9256;52.236;5.712;2023-04-15T14:34:19;2.95;;;1.40;;
18259;SDS011;9256;52.236;5.712;2023-04-15T14:36:49;4.90;;;1.35;;
18259;SDS011;9256;52.236;5.712;2023-04-15T14:39:16;3.90;;;1.50;;
18259;SDS011;9256;52.236;5.712;2023-04-15T14:41:44;3.97;;;1.60;;
18259;SDS011;9256;52.236;5.712;2023-04-15T14:44:11;5.50;;;1.85;;
18259;SDS011;9256;52.236;5.712;2023-04-15T14:46:38;6.97;;;2.20;;
18259;SDS011;9256;52.236;5.712;2023-04-15T14:49:06;8.23;;;1.80;;
18259;SDS011;9256;52.236;5.712;2023-04-15T14:51:33;4.45;;;1.60;;
18259;SDS011;9256;52.236;5.712;2023-04-15T14:54:00;12.05;;;1.65;;
18259;SDS011;9256;52.236;5.712;2023-04-15T14:56:27;4.30;;;1.27;;
18259;SDS011;9256;52.236;5.712;2023-04-15T14:58:55;5.85;;;1.33;;
18259;SDS011;9256;52.236;5.712;2023-04-15T15:01:22;6.82;;;1.42;;
18259;SDS011;9256;52.236;5.712;2023-04-15T15:03:49;4.32;;;1.10;;
18259;SDS011;9256;52.236;5.712;2023-04-15T15:06:16;6.10;;;0.90;;
18259;SDS011;9256;52.236;5.712;2023-04-15T15:08:43;7.68;;;0.90;;
18259;SDS011;9256;52.236;5.712;2023-04-15T15:11:10;1.88;;;0.77;;
18259;SDS011;9256;52.236;5.712;2023-04-15T15:13:36;5.72;;;1.10;;